LOWL/LNZ METAR and TAF weather

Enter ICAO airport designator
Station Type Date Time Source
LOWL METAR 2018/12/15 04:20 UTC NOAA

LOWL 150420Z 27004KT 6000 -SN FEW021 SCT032 BKN050 M02/M04 Q1024 R08/49//95 TEMPO 4000


Station Type Date Time Source
LOWL Decoded METAR 2018/12/15 04:20 UTC NOAA

Linz / Hoersching-Flughafen, Austria (LOWL) 48-14N 014-11E 313M
Dec 14, 2018 - 11:20 PM EST / 2018.12.15 0420 UTC
Wind: from the W (270 degrees) at 5 MPH (4 KT):0
Visibility: 3 mile(s):0
Sky conditions: mostly cloudy
Weather: light snow
Temperature: 28 F (-2 C)
Windchill: 23 F (-5 C):1
Dew Point: 24 F (-4 C)
Relative Humidity: 86%
Pressure (altimeter): 30.24 in. Hg (1024 hPa)
ob: LOWL 150420Z 27004KT 6000 -SN FEW021 SCT032 BKN050 M02/M04 Q1024 R08/49//95 TEMPO 4000
cycle: 4

Station Type Date Time Source
LOWL TAF 2018/12/14 18:21 UTC NOAA

TAF LOWL 141715Z 1418/1518 10009KT 9999 SCT015 BKN025 TXM02/1514Z TNM04/1505Z
BECMG 1423/1501 34004KT PROB40
TEMPO 1502/1509 VRB02KT 3000 -SN BKN008
TEMPO 1511/1517 4000 -SN SCT010 BKN035


Example: see airport list